sensor_id;sensor_type;location;lat;lon;timestamp;P1;durP1;ratioP1;P2;durP2;ratioP2
13611;SDS011;6877;51.436;6.774;2023-11-18T00:01:45;51.00;;;22.38;;
13611;SDS011;6877;51.436;6.774;2023-11-18T00:04:12;50.45;;;21.85;;
13611;SDS011;6877;51.436;6.774;2023-11-18T00:06:44;64.43;;;21.67;;
13611;SDS011;6877;51.436;6.774;2023-11-18T00:09:11;60.92;;;21.88;;
13611;SDS011;6877;51.436;6.774;2023-11-18T00:11:41;54.63;;;21.48;;
13611;SDS011;6877;51.436;6.774;2023-11-18T00:14:11;52.35;;;21.80;;
13611;SDS011;6877;51.436;6.774;2023-11-18T00:16:42;53.53;;;20.63;;
13611;SDS011;6877;51.436;6.774;2023-11-18T00:19:09;62.25;;;21.42;;
13611;SDS011;6877;51.436;6.774;2023-11-18T00:21:41;71.65;;;22.35;;
13611;SDS011;6877;51.436;6.774;2023-11-18T00:24:08;59.63;;;19.35;;
13611;SDS011;6877;51.436;6.774;2023-11-18T00:26:40;74.35;;;21.70;;
13611;SDS011;6877;51.436;6.774;2023-11-18T00:29:07;53.38;;;20.40;;
13611;SDS011;6877;51.436;6.774;2023-11-18T00:31:34;56.45;;;20.92;;
13611;SDS011;6877;51.436;6.774;2023-11-18T00:34:01;58.80;;;20.98;;
13611;SDS011;6877;51.436;6.774;2023-11-18T00:36:33;64.00;;;20.92;;
13611;SDS011;6877;51.436;6.774;2023-11-18T00:38:59;55.28;;;20.08;;
13611;SDS011;6877;51.436;6.774;2023-11-18T00:41:26;56.88;;;19.67;;
13611;SDS011;6877;51.436;6.774;2023-11-18T00:43:52;59.85;;;19.15;;
13611;SDS011;6877;51.436;6.774;2023-11-18T00:46:19;63.88;;;20.05;;
13611;SDS011;6877;51.436;6.774;2023-11-18T00:48:51;55.53;;;19.02;;
13611;SDS011;6877;51.436;6.774;2023-11-18T00:51:22;55.70;;;19.25;;
13611;SDS011;6877;51.436;6.774;2023-11-18T00:53:49;57.13;;;20.80;;
13611;SDS011;6877;51.436;6.774;2023-11-18T00:56:22;57.53;;;22.42;;
13611;SDS011;6877;51.436;6.774;2023-11-18T00:58:48;57.88;;;22.17;;
13611;SDS011;6877;51.436;6.774;2023-11-18T01:01:22;63.25;;;20.33;;
13611;SDS011;6877;51.436;6.774;2023-11-18T01:03:53;61.75;;;21.67;;
13611;SDS011;6877;51.436;6.774;2023-11-18T01:06:25;59.47;;;20.77;;
13611;SDS011;6877;51.436;6.774;2023-11-18T01:08:57;56.85;;;20.95;;
13611;SDS011;6877;51.436;6.774;2023-11-18T01:11:24;49.97;;;19.70;;
13611;SDS011;6877;51.436;6.774;2023-11-18T01:13:50;59.58;;;22.08;;
13611;SDS011;6877;51.436;6.774;2023-11-18T01:16:22;64.15;;;20.58;;
13611;SDS011;6877;51.436;6.774;2023-11-18T01:18:54;56.63;;;22.05;;
13611;SDS011;6877;51.436;6.774;2023-11-18T01:21:25;66.18;;;22.13;;
13611;SDS011;6877;51.436;6.774;2023-11-18T01:23:58;67.50;;;22.60;;
13611;SDS011;6877;51.436;6.774;2023-11-18T01:26:30;50.97;;;20.40;;
13611;SDS011;6877;51.436;6.774;2023-11-18T01:28:59;53.15;;;20.42;;
13611;SDS011;6877;51.436;6.774;2023-11-18T01:31:30;46.67;;;18.85;;
13611;SDS011;6877;51.436;6.774;2023-11-18T01:33:58;58.88;;;21.35;;
13611;SDS011;6877;51.436;6.774;2023-11-18T01:36:24;55.17;;;21.75;;
13611;SDS011;6877;51.436;6.774;2023-11-18T01:38:51;49.00;;;18.73;;
13611;SDS011;6877;51.436;6.774;2023-11-18T01:41:22;59.20;;;21.75;;
13611;SDS011;6877;51.436;6.774;2023-11-18T01:43:49;55.30;;;19.00;;
13611;SDS011;6877;51.436;6.774;2023-11-18T01:46:19;58.70;;;20.67;;
13611;SDS011;6877;51.436;6.774;2023-11-18T01:48:47;59.42;;;19.77;;
13611;SDS011;6877;51.436;6.774;2023-11-18T01:51:14;52.35;;;20.10;;
13611;SDS011;6877;51.436;6.774;2023-11-18T01:53:46;57.58;;;20.73;;
13611;SDS011;6877;51.436;6.774;2023-11-18T01:56:14;45.35;;;19.30;;
13611;SDS011;6877;51.436;6.774;2023-11-18T01:58:45;54.60;;;20.20;;
13611;SDS011;6877;51.436;6.774;2023-11-18T02:01:13;59.13;;;20.80;;
13611;SDS011;6877;51.436;6.774;2023-11-18T02:03:42;59.67;;;20.67;;
13611;SDS011;6877;51.436;6.774;2023-11-18T02:06:13;45.22;;;17.95;;
13611;SDS011;6877;51.436;6.774;2023-11-18T02:08:41;46.42;;;16.85;;
13611;SDS011;6877;51.436;6.774;2023-11-18T02:11:17;54.53;;;20.02;;
13611;SDS011;6877;51.436;6.774;2023-11-18T02:13:50;42.53;;;18.52;;
13611;SDS011;6877;51.436;6.774;2023-11-18T02:16:20;57.60;;;18.33;;
13611;SDS011;6877;51.436;6.774;2023-11-18T02:18:49;40.10;;;18.00;;
13611;SDS011;6877;51.436;6.774;2023-11-18T02:21:15;57.25;;;19.35;;
13611;SDS011;6877;51.436;6.774;2023-11-18T02:23:48;49.03;;;19.98;;
13611;SDS011;6877;51.436;6.774;2023-11-18T02:26:22;52.50;;;18.45;;
13611;SDS011;6877;51.436;6.774;2023-11-18T02:28:53;63.10;;;20.65;;
13611;SDS011;6877;51.436;6.774;2023-11-18T02:31:22;64.15;;;20.63;;
13611;SDS011;6877;51.436;6.774;2023-11-18T02:34:05;64.75;;;22.50;;
13611;SDS011;6877;51.436;6.774;2023-11-18T02:36:43;47.90;;;20.95;;
13611;SDS011;6877;51.436;6.774;2023-11-18T02:39:17;43.05;;;19.60;;
13611;SDS011;6877;51.436;6.774;2023-11-18T02:41:48;47.13;;;19.45;;
13611;SDS011;6877;51.436;6.774;2023-11-18T02:44:18;52.03;;;21.38;;
13611;SDS011;6877;51.436;6.774;2023-11-18T02:46:49;49.85;;;18.65;;
13611;SDS011;6877;51.436;6.774;2023-11-18T02:49:20;45.78;;;19.23;;
13611;SDS011;6877;51.436;6.774;2023-11-18T02:51:46;46.58;;;17.98;;
13611;SDS011;6877;51.436;6.774;2023-11-18T02:54:13;50.50;;;19.65;;
13611;SDS011;6877;51.436;6.774;2023-11-18T02:56:42;46.88;;;19.63;;
13611;SDS011;6877;51.436;6.774;2023-11-18T02:59:12;49.17;;;20.00;;
13611;SDS011;6877;51.436;6.774;2023-11-18T03:01:41;48.28;;;18.80;;
13611;SDS011;6877;51.436;6.774;2023-11-18T03:04:08;46.92;;;20.30;;
13611;SDS011;6877;51.436;6.774;2023-11-18T03:06:36;40.92;;;18.95;;
13611;SDS011;6877;51.436;6.774;2023-11-18T03:09:02;49.60;;;19.52;;
13611;SDS011;6877;51.436;6.774;2023-11-18T03:11:33;42.25;;;18.52;;
13611;SDS011;6877;51.436;6.774;2023-11-18T03:14:00;42.63;;;17.85;;
13611;SDS011;6877;51.436;6.774;2023-11-18T03:16:27;47.75;;;17.50;;
13611;SDS011;6877;51.436;6.774;2023-11-18T03:18:58;44.78;;;18.58;;
13611;SDS011;6877;51.436;6.774;2023-11-18T03:21:25;45.30;;;19.38;;
13611;SDS011;6877;51.436;6.774;2023-11-18T03:23:57;44.78;;;17.88;;
13611;SDS011;6877;51.436;6.774;2023-11-18T03:26:29;44.97;;;18.27;;
13611;SDS011;6877;51.436;6.774;2023-11-18T03:29:02;45.97;;;17.83;;
13611;SDS011;6877;51.436;6.774;2023-11-18T03:31:29;45.30;;;17.77;;
13611;SDS011;6877;51.436;6.774;2023-11-18T03:33:55;40.53;;;17.55;;
13611;SDS011;6877;51.436;6.774;2023-11-18T03:36:22;44.35;;;18.80;;
13611;SDS011;6877;51.436;6.774;2023-11-18T03:38:53;39.83;;;17.77;;
13611;SDS011;6877;51.436;6.774;2023-11-18T03:41:20;41.17;;;17.98;;
13611;SDS011;6877;51.436;6.774;2023-11-18T03:43:49;34.70;;;17.42;;
13611;SDS011;6877;51.436;6.774;2023-11-18T03:46:16;40.00;;;18.48;;
13611;SDS011;6877;51.436;6.774;2023-11-18T03:48:48;43.40;;;17.65;;
13611;SDS011;6877;51.436;6.774;2023-11-18T03:51:14;39.25;;;17.85;;
13611;SDS011;6877;51.436;6.774;2023-11-18T03:53:49;43.97;;;19.05;;
13611;SDS011;6877;51.436;6.774;2023-11-18T03:56:18;42.13;;;16.90;;
13611;SDS011;6877;51.436;6.774;2023-11-18T03:58:45;42.65;;;18.05;;
13611;SDS011;6877;51.436;6.774;2023-11-18T04:01:25;47.58;;;20.20;;
13611;SDS011;6877;51.436;6.774;2023-11-18T04:03:58;43.05;;;18.73;;
13611;SDS011;6877;51.436;6.774;2023-11-18T04:06:24;43.20;;;17.35;;
13611;SDS011;6877;51.436;6.774;2023-11-18T04:08:59;44.10;;;17.42;;
13611;SDS011;6877;51.436;6.774;2023-11-18T04:11:25;37.97;;;17.38;;
13611;SDS011;6877;51.436;6.774;2023-11-18T04:13:52;42.08;;;17.75;;
13611;SDS011;6877;51.436;6.774;2023-11-18T04:16:18;43.33;;;18.70;;
13611;SDS011;6877;51.436;6.774;2023-11-18T04:18:53;35.83;;;17.15;;
13611;SDS011;6877;51.436;6.774;2023-11-18T04:21:20;46.80;;;17.40;;
13611;SDS011;6877;51.436;6.774;2023-11-18T04:23:46;45.28;;;18.40;;
13611;SDS011;6877;51.436;6.774;2023-11-18T04:26:13;35.10;;;16.25;;
13611;SDS011;6877;51.436;6.774;2023-11-18T04:28:44;45.75;;;17.13;;
13611;SDS011;6877;51.436;6.774;2023-11-18T04:31:11;46.10;;;17.63;;
13611;SDS011;6877;51.436;6.774;2023-11-18T04:33:37;46.40;;;18.63;;
13611;SDS011;6877;51.436;6.774;2023-11-18T04:36:07;40.28;;;17.15;;
13611;SDS011;6877;51.436;6.774;2023-11-18T04:38:36;36.80;;;16.95;;
13611;SDS011;6877;51.436;6.774;2023-11-18T04:41:02;36.08;;;16.85;;
13611;SDS011;6877;51.436;6.774;2023-11-18T04:43:34;38.50;;;17.00;;
13611;SDS011;6877;51.436;6.774;2023-11-18T04:46:01;37.28;;;16.20;;
13611;SDS011;6877;51.436;6.774;2023-11-18T04:48:27;40.83;;;16.80;;
13611;SDS011;6877;51.436;6.774;2023-11-18T04:50:54;34.75;;;15.88;;
13611;SDS011;6877;51.436;6.774;2023-11-18T04:53:21;43.75;;;16.67;;
13611;SDS011;6877;51.436;6.774;2023-11-18T04:55:52;43.38;;;16.75;;
13611;SDS011;6877;51.436;6.774;2023-11-18T04:58:19;38.67;;;17.17;;
13611;SDS011;6877;51.436;6.774;2023-11-18T05:00:45;38.45;;;16.65;;
13611;SDS011;6877;51.436;6.774;2023-11-18T05:03:12;40.20;;;16.48;;
13611;SDS011;6877;51.436;6.774;2023-11-18T05:05:39;42.42;;;16.83;;
13611;SDS011;6877;51.436;6.774;2023-11-18T05:08:18;37.70;;;18.17;;
13611;SDS011;6877;51.436;6.774;2023-11-18T05:10:49;44.63;;;15.10;;
13611;SDS011;6877;51.436;6.774;2023-11-18T05:13:21;42.80;;;16.25;;
13611;SDS011;6877;51.436;6.774;2023-11-18T05:15:54;38.20;;;16.38;;
13611;SDS011;6877;51.436;6.774;2023-11-18T05:18:20;37.25;;;16.05;;
13611;SDS011;6877;51.436;6.774;2023-11-18T05:20:52;46.28;;;18.30;;
13611;SDS011;6877;51.436;6.774;2023-11-18T05:23:25;37.00;;;15.50;;
13611;SDS011;6877;51.436;6.774;2023-11-18T05:25:51;40.05;;;15.93;;
13611;SDS011;6877;51.436;6.774;2023-11-18T05:28:23;35.58;;;16.15;;
13611;SDS011;6877;51.436;6.774;2023-11-18T05:30:55;42.05;;;16.77;;
13611;SDS011;6877;51.436;6.774;2023-11-18T05:33:29;41.95;;;15.85;;
13611;SDS011;6877;51.436;6.774;2023-11-18T05:35:56;41.22;;;15.68;;
13611;SDS011;6877;51.436;6.774;2023-11-18T05:38:22;45.03;;;16.67;;
13611;SDS011;6877;51.436;6.774;2023-11-18T05:40:50;39.75;;;16.77;;
13611;SDS011;6877;51.436;6.774;2023-11-18T05:43:28;37.30;;;16.35;;
13611;SDS011;6877;51.436;6.774;2023-11-18T05:46:05;35.75;;;15.35;;
13611;SDS011;6877;51.436;6.774;2023-11-18T05:48:51;37.28;;;14.68;;
13611;SDS011;6877;51.436;6.774;2023-11-18T05:51:27;47.38;;;17.40;;
13611;SDS011;6877;51.436;6.774;2023-11-18T05:53:55;43.45;;;16.15;;
13611;SDS011;6877;51.436;6.774;2023-11-18T05:56:21;38.55;;;16.15;;
13611;SDS011;6877;51.436;6.774;2023-11-18T05:58:53;32.60;;;14.85;;
13611;SDS011;6877;51.436;6.774;2023-11-18T06:01:25;38.70;;;15.10;;
13611;SDS011;6877;51.436;6.774;2023-11-18T06:03:59;30.15;;;13.57;;
13611;SDS011;6877;51.436;6.774;2023-11-18T06:06:26;30.60;;;13.95;;
13611;SDS011;6877;51.436;6.774;2023-11-18T06:08:58;28.42;;;14.88;;
13611;SDS011;6877;51.436;6.774;2023-11-18T06:11:35;39.13;;;16.45;;
13611;SDS011;6877;51.436;6.774;2023-11-18T06:14:12;31.38;;;14.82;;
13611;SDS011;6877;51.436;6.774;2023-11-18T06:16:38;33.80;;;15.88;;
13611;SDS011;6877;51.436;6.774;2023-11-18T06:19:13;31.77;;;13.93;;
13611;SDS011;6877;51.436;6.774;2023-11-18T06:21:40;35.42;;;15.88;;
13611;SDS011;6877;51.436;6.774;2023-11-18T06:24:12;28.85;;;13.10;;
13611;SDS011;6877;51.436;6.774;2023-11-18T06:26:45;31.88;;;14.65;;
13611;SDS011;6877;51.436;6.774;2023-11-18T06:29:18;40.90;;;16.08;;
13611;SDS011;6877;51.436;6.774;2023-11-18T06:31:44;38.50;;;15.25;;
13611;SDS011;6877;51.436;6.774;2023-11-18T06:34:11;37.22;;;16.85;;
13611;SDS011;6877;51.436;6.774;2023-11-18T06:36:38;36.20;;;16.23;;
13611;SDS011;6877;51.436;6.774;2023-11-18T06:39:05;36.95;;;17.40;;
13611;SDS011;6877;51.436;6.774;2023-11-18T06:41:33;37.65;;;16.35;;
13611;SDS011;6877;51.436;6.774;2023-11-18T06:44:04;34.67;;;14.32;;
13611;SDS011;6877;51.436;6.774;2023-11-18T06:46:44;28.65;;;12.60;;
13611;SDS011;6877;51.436;6.774;2023-11-18T06:49:15;35.78;;;14.48;;
13611;SDS011;6877;51.436;6.774;2023-11-18T06:51:42;41.47;;;16.08;;
13611;SDS011;6877;51.436;6.774;2023-11-18T06:54:09;30.50;;;14.02;;
13611;SDS011;6877;51.436;6.774;2023-11-18T06:56:42;36.53;;;15.65;;
13611;SDS011;6877;51.436;6.774;2023-11-18T06:59:09;39.20;;;16.55;;
13611;SDS011;6877;51.436;6.774;2023-11-18T07:01:39;31.10;;;14.48;;
13611;SDS011;6877;51.436;6.774;2023-11-18T07:04:07;28.23;;;15.15;;
13611;SDS011;6877;51.436;6.774;2023-11-18T07:06:35;41.10;;;16.20;;
13611;SDS011;6877;51.436;6.774;2023-11-18T07:09:09;37.97;;;13.88;;
13611;SDS011;6877;51.436;6.774;2023-11-18T07:11:40;32.10;;;14.77;;
13611;SDS011;6877;51.436;6.774;2023-11-18T07:14:09;30.58;;;14.07;;
13611;SDS011;6877;51.436;6.774;2023-11-18T07:16:42;32.03;;;14.15;;
13611;SDS011;6877;51.436;6.774;2023-11-18T07:19:09;31.27;;;14.18;;
13611;SDS011;6877;51.436;6.774;2023-11-18T07:21:43;33.80;;;13.70;;
13611;SDS011;6877;51.436;6.774;2023-11-18T07:24:10;31.88;;;14.93;;
13611;SDS011;6877;51.436;6.774;2023-11-18T07:26:36;36.72;;;13.80;;
13611;SDS011;6877;51.436;6.774;2023-11-18T07:29:02;37.95;;;14.15;;
13611;SDS011;6877;51.436;6.774;2023-11-18T07:31:34;31.05;;;14.18;;
13611;SDS011;6877;51.436;6.774;2023-11-18T07:34:07;31.90;;;15.50;;
13611;SDS011;6877;51.436;6.774;2023-11-18T07:36:38;32.45;;;14.05;;
13611;SDS011;6877;51.436;6.774;2023-11-18T07:39:09;26.70;;;12.43;;
13611;SDS011;6877;51.436;6.774;2023-11-18T07:41:42;34.08;;;14.85;;
13611;SDS011;6877;51.436;6.774;2023-11-18T07:44:08;35.45;;;14.77;;
13611;SDS011;6877;51.436;6.774;2023-11-18T07:46:39;28.48;;;13.32;;
13611;SDS011;6877;51.436;6.774;2023-11-18T07:49:13;27.25;;;13.13;;
13611;SDS011;6877;51.436;6.774;2023-11-18T07:51:42;36.28;;;14.70;;
13611;SDS011;6877;51.436;6.774;2023-11-18T07:54:09;31.27;;;13.65;;
13611;SDS011;6877;51.436;6.774;2023-11-18T07:56:41;30.30;;;12.85;;
13611;SDS011;6877;51.436;6.774;2023-11-18T07:59:18;27.30;;;12.50;;
13611;SDS011;6877;51.436;6.774;2023-11-18T08:01:50;22.38;;;11.98;;
13611;SDS011;6877;51.436;6.774;2023-11-18T08:04:21;31.75;;;13.98;;
13611;SDS011;6877;51.436;6.774;2023-11-18T08:06:53;29.63;;;12.13;;
13611;SDS011;6877;51.436;6.774;2023-11-18T08:09:24;31.63;;;13.02;;
13611;SDS011;6877;51.436;6.774;2023-11-18T08:11:56;25.20;;;12.55;;
13611;SDS011;6877;51.436;6.774;2023-11-18T08:14:28;30.88;;;11.10;;
13611;SDS011;6877;51.436;6.774;2023-11-18T08:16:55;27.35;;;12.80;;
13611;SDS011;6877;51.436;6.774;2023-11-18T08:19:22;23.80;;;11.40;;
13611;SDS011;6877;51.436;6.774;2023-11-18T08:21:54;29.77;;;11.77;;
13611;SDS011;6877;51.436;6.774;2023-11-18T08:24:20;27.73;;;11.30;;
13611;SDS011;6877;51.436;6.774;2023-11-18T08:26:48;25.88;;;11.43;;
13611;SDS011;6877;51.436;6.774;2023-11-18T08:29:19;22.50;;;10.38;;
13611;SDS011;6877;51.436;6.774;2023-11-18T08:31:46;23.92;;;11.43;;
13611;SDS011;6877;51.436;6.774;2023-11-18T08:34:12;25.17;;;10.98;;
13611;SDS011;6877;51.436;6.774;2023-11-18T08:36:40;23.50;;;11.60;;
13611;SDS011;6877;51.436;6.774;2023-11-18T08:39:11;23.10;;;10.82;;
13611;SDS011;6877;51.436;6.774;2023-11-18T08:41:45;22.70;;;11.07;;
13611;SDS011;6877;51.436;6.774;2023-11-18T08:44:11;25.83;;;12.25;;
13611;SDS011;6877;51.436;6.774;2023-11-18T08:46:44;18.38;;;9.35;;
13611;SDS011;6877;51.436;6.774;2023-11-18T08:49:15;28.40;;;11.27;;
13611;SDS011;6877;51.436;6.774;2023-11-18T08:51:42;25.95;;;11.10;;
13611;SDS011;6877;51.436;6.774;2023-11-18T08:54:14;24.42;;;10.25;;
13611;SDS011;6877;51.436;6.774;2023-11-18T08:56:53;17.20;;;9.20;;
13611;SDS011;6877;51.436;6.774;2023-11-18T08:59:23;21.00;;;11.00;;
13611;SDS011;6877;51.436;6.774;2023-11-18T09:01:53;25.05;;;10.18;;
13611;SDS011;6877;51.436;6.774;2023-11-18T09:04:25;21.05;;;11.25;;
13611;SDS011;6877;51.436;6.774;2023-11-18T09:06:57;19.48;;;9.57;;
13611;SDS011;6877;51.436;6.774;2023-11-18T09:09:26;17.90;;;9.15;;
13611;SDS011;6877;51.436;6.774;2023-11-18T09:11:58;19.65;;;10.10;;
13611;SDS011;6877;51.436;6.774;2023-11-18T09:14:25;19.58;;;9.95;;
13611;SDS011;6877;51.436;6.774;2023-11-18T09:16:52;15.00;;;8.40;;
13611;SDS011;6877;51.436;6.774;2023-11-18T09:19:27;18.40;;;9.05;;
13611;SDS011;6877;51.436;6.774;2023-11-18T09:21:53;20.70;;;9.38;;
13611;SDS011;6877;51.436;6.774;2023-11-18T09:24:21;20.52;;;10.20;;
13611;SDS011;6877;51.436;6.774;2023-11-18T09:26:50;17.50;;;7.63;;
13611;SDS011;6877;51.436;6.774;2023-11-18T09:29:17;16.15;;;8.05;;
13611;SDS011;6877;51.436;6.774;2023-11-18T09:31:49;14.95;;;8.43;;
13611;SDS011;6877;51.436;6.774;2023-11-18T09:34:21;13.77;;;7.22;;
13611;SDS011;6877;51.436;6.774;2023-11-18T09:36:53;18.35;;;8.35;;
13611;SDS011;6877;51.436;6.774;2023-11-18T09:39:25;16.42;;;8.02;;
13611;SDS011;6877;51.436;6.774;2023-11-18T09:42:00;16.83;;;7.40;;
13611;SDS011;6877;51.436;6.774;2023-11-18T09:44:35;14.35;;;7.10;;
13611;SDS011;6877;51.436;6.774;2023-11-18T09:47:08;17.98;;;7.78;;
13611;SDS011;6877;51.436;6.774;2023-11-18T09:49:46;16.55;;;8.70;;
13611;SDS011;6877;51.436;6.774;2023-11-18T09:52:19;14.13;;;7.25;;
13611;SDS011;6877;51.436;6.774;2023-11-18T09:55:00;14.48;;;7.82;;
13611;SDS011;6877;51.436;6.774;2023-11-18T09:58:09;11.00;;;5.90;;
13611;SDS011;6877;51.436;6.774;2023-11-18T10:00:37;11.40;;;6.43;;
13611;SDS011;6877;51.436;6.774;2023-11-18T10:03:05;15.45;;;6.85;;
13611;SDS011;6877;51.436;6.774;2023-11-18T10:05:40;13.77;;;7.10;;
13611;SDS011;6877;51.436;6.774;2023-11-18T10:08:06;10.68;;;6.70;;
13611;SDS011;6877;51.436;6.774;2023-11-18T10:10:38;13.63;;;7.65;;
13611;SDS011;6877;51.436;6.774;2023-11-18T10:13:09;13.57;;;6.72;;
13611;SDS011;6877;51.436;6.774;2023-11-18T10:15:52;12.65;;;6.25;;
13611;SDS011;6877;51.436;6.774;2023-11-18T10:18:19;19.83;;;8.80;;
13611;SDS011;6877;51.436;6.774;2023-11-18T10:20:50;12.70;;;6.05;;
13611;SDS011;6877;51.436;6.774;2023-11-18T10:23:18;13.65;;;7.68;;
13611;SDS011;6877;51.436;6.774;2023-11-18T10:25:52;15.73;;;6.78;;
13611;SDS011;6877;51.436;6.774;2023-11-18T10:28:26;13.95;;;6.45;;
13611;SDS011;6877;51.436;6.774;2023-11-18T10:30:57;8.95;;;6.00;;
13611;SDS011;6877;51.436;6.774;2023-11-18T10:33:25;9.52;;;5.78;;
13611;SDS011;6877;51.436;6.774;2023-11-18T10:35:57;9.43;;;5.60;;
13611;SDS011;6877;51.436;6.774;2023-11-18T10:38:24;13.35;;;6.72;;
13611;SDS011;6877;51.436;6.774;2023-11-18T10:40:56;14.60;;;5.88;;
13611;SDS011;6877;51.436;6.774;2023-11-18T10:43:24;10.50;;;6.00;;
13611;SDS011;6877;51.436;6.774;2023-11-18T10:46:08;12.85;;;5.40;;
13611;SDS011;6877;51.436;6.774;2023-11-18T10:48:43;9.13;;;5.63;;
13611;SDS011;6877;51.436;6.774;2023-11-18T10:51:16;10.57;;;5.70;;
13611;SDS011;6877;51.436;6.774;2023-11-18T10:53:48;10.32;;;6.10;;
13611;SDS011;6877;51.436;6.774;2023-11-18T10:56:29;9.73;;;5.75;;
13611;SDS011;6877;51.436;6.774;2023-11-18T10:58:57;12.35;;;5.50;;
13611;SDS011;6877;51.436;6.774;2023-11-18T11:01:31;13.15;;;6.07;;
13611;SDS011;6877;51.436;6.774;2023-11-18T11:04:00;10.50;;;6.00;;
13611;SDS011;6877;51.436;6.774;2023-11-18T11:06:31;13.75;;;6.07;;
13611;SDS011;6877;51.436;6.774;2023-11-18T11:08:58;13.82;;;6.70;;
13611;SDS011;6877;51.436;6.774;2023-11-18T11:11:25;12.40;;;6.25;;
13611;SDS011;6877;51.436;6.774;2023-11-18T11:14:00;13.77;;;5.70;;
13611;SDS011;6877;51.436;6.774;2023-11-18T11:16:40;19.35;;;7.32;;
13611;SDS011;6877;51.436;6.774;2023-11-18T11:19:22;47.22;;;7.25;;
13611;SDS011;6877;51.436;6.774;2023-11-18T11:21:55;13.50;;;6.43;;
13611;SDS011;6877;51.436;6.774;2023-11-18T11:24:34;10.00;;;5.60;;
13611;SDS011;6877;51.436;6.774;2023-11-18T11:27:25;10.35;;;6.13;;
13611;SDS011;6877;51.436;6.774;2023-11-18T11:30:08;11.07;;;6.88;;
13611;SDS011;6877;51.436;6.774;2023-11-18T11:32:52;10.40;;;6.00;;
13611;SDS011;6877;51.436;6.774;2023-11-18T11:35:25;8.05;;;5.25;;
13611;SDS011;6877;51.436;6.774;2023-11-18T11:38:03;13.05;;;6.50;;
13611;SDS011;6877;51.436;6.774;2023-11-18T11:40:36;18.15;;;8.55;;
13611;SDS011;6877;51.436;6.774;2023-11-18T11:43:09;11.07;;;6.45;;
13611;SDS011;6877;51.436;6.774;2023-11-18T11:45:52;13.30;;;5.47;;
13611;SDS011;6877;51.436;6.774;2023-11-18T11:48:21;12.68;;;6.07;;
13611;SDS011;6877;51.436;6.774;2023-11-18T11:51:11;12.15;;;6.90;;
13611;SDS011;6877;51.436;6.774;2023-11-18T11:53:56;11.18;;;6.05;;
13611;SDS011;6877;51.436;6.774;2023-11-18T11:56:43;10.02;;;5.90;;
13611;SDS011;6877;51.436;6.774;2023-11-18T12:02:15;12.00;;;6.00;;
13611;SDS011;6877;51.436;6.774;2023-11-18T12:04:50;14.07;;;6.50;;
13611;SDS011;6877;51.436;6.774;2023-11-18T12:07:25;15.85;;;6.50;;
13611;SDS011;6877;51.436;6.774;2023-11-18T12:10:01;12.07;;;6.82;;
13611;SDS011;6877;51.436;6.774;2023-11-18T12:12:37;12.25;;;6.88;;
13611;SDS011;6877;51.436;6.774;2023-11-18T12:15:08;10.60;;;6.05;;
13611;SDS011;6877;51.436;6.774;2023-11-18T12:20:40;12.27;;;6.63;;
13611;SDS011;6877;51.436;6.774;2023-11-18T12:23:08;14.07;;;6.88;;
13611;SDS011;6877;51.436;6.774;2023-11-18T12:25:46;13.55;;;7.15;;
13611;SDS011;6877;51.436;6.774;2023-11-18T12:28:16;13.05;;;7.22;;
13611;SDS011;6877;51.436;6.774;2023-11-18T12:30:47;17.80;;;6.95;;
13611;SDS011;6877;51.436;6.774;2023-11-18T12:41:47;18.08;;;7.03;;
13611;SDS011;6877;51.436;6.774;2023-11-18T12:44:36;15.93;;;7.43;;
13611;SDS011;6877;51.436;6.774;2023-11-18T12:47:06;18.80;;;8.02;;
13611;SDS011;6877;51.436;6.774;2023-11-18T12:49:44;17.05;;;7.18;;
13611;SDS011;6877;51.436;6.774;2023-11-18T12:52:21;15.00;;;7.45;;
13611;SDS011;6877;51.436;6.774;2023-11-18T12:54:53;13.20;;;7.60;;
13611;SDS011;6877;51.436;6.774;2023-11-18T12:57:29;14.82;;;6.90;;
13611;SDS011;6877;51.436;6.774;2023-11-18T12:59:57;13.82;;;7.50;;
13611;SDS011;6877;51.436;6.774;2023-11-18T13:02:23;11.75;;;7.57;;
13611;SDS011;6877;51.436;6.774;2023-11-18T13:04:50;13.40;;;7.00;;
13611;SDS011;6877;51.436;6.774;2023-11-18T13:07:19;16.13;;;6.78;;
13611;SDS011;6877;51.436;6.774;2023-11-18T13:09:54;12.05;;;6.68;;
13611;SDS011;6877;51.436;6.774;2023-11-18T13:12:21;18.50;;;6.75;;
13611;SDS011;6877;51.436;6.774;2023-11-18T13:14:49;12.27;;;5.78;;
13611;SDS011;6877;51.436;6.774;2023-11-18T13:17:17;16.83;;;6.85;;
13611;SDS011;6877;51.436;6.774;2023-11-18T13:19:44;15.65;;;7.10;;
13611;SDS011;6877;51.436;6.774;2023-11-18T13:22:12;15.23;;;7.32;;
13611;SDS011;6877;51.436;6.774;2023-11-18T13:24:40;14.70;;;5.82;;
13611;SDS011;6877;51.436;6.774;2023-11-18T13:27:16;10.52;;;6.35;;
13611;SDS011;6877;51.436;6.774;2023-11-18T13:29:50;16.48;;;6.65;;
13611;SDS011;6877;51.436;6.774;2023-11-18T13:32:24;11.50;;;5.70;;
13611;SDS011;6877;51.436;6.774;2023-11-18T13:34:52;11.25;;;5.57;;
13611;SDS011;6877;51.436;6.774;2023-11-18T13:37:24;11.80;;;6.15;;
13611;SDS011;6877;51.436;6.774;2023-11-18T13:39:54;12.52;;;5.28;;
13611;SDS011;6877;51.436;6.774;2023-11-18T13:42:21;12.52;;;6.10;;
13611;SDS011;6877;51.436;6.774;2023-11-18T13:45:02;13.15;;;6.80;;
13611;SDS011;6877;51.436;6.774;2023-11-18T13:47:49;9.40;;;5.80;;
13611;SDS011;6877;51.436;6.774;2023-11-18T13:50:18;12.00;;;5.28;;
13611;SDS011;6877;51.436;6.774;2023-11-18T13:52:46;8.10;;;4.60;;
13611;SDS011;6877;51.436;6.774;2023-11-18T13:55:15;9.70;;;4.97;;
13611;SDS011;6877;51.436;6.774;2023-11-18T13:58:08;13.18;;;4.80;;
13611;SDS011;6877;51.436;6.774;2023-11-18T14:00:41;11.25;;;4.78;;
13611;SDS011;6877;51.436;6.774;2023-11-18T14:03:08;7.43;;;4.85;;
13611;SDS011;6877;51.436;6.774;2023-11-18T14:05:42;9.32;;;4.88;;
13611;SDS011;6877;51.436;6.774;2023-11-18T14:08:11;7.78;;;5.07;;
13611;SDS011;6877;51.436;6.774;2023-11-18T14:10:48;9.18;;;4.05;;
13611;SDS011;6877;51.436;6.774;2023-11-18T14:13:21;6.15;;;3.67;;
13611;SDS011;6877;51.436;6.774;2023-11-18T14:15:48;9.30;;;3.80;;
13611;SDS011;6877;51.436;6.774;2023-11-18T14:18:21;6.50;;;3.70;;
13611;SDS011;6877;51.436;6.774;2023-11-18T14:20:48;6.32;;;3.75;;
13611;SDS011;6877;51.436;6.774;2023-11-18T14:23:21;7.32;;;5.05;;
13611;SDS011;6877;51.436;6.774;2023-11-18T14:25:53;6.07;;;3.70;;
13611;SDS011;6877;51.436;6.774;2023-11-18T14:28:22;5.63;;;3.97;;
13611;SDS011;6877;51.436;6.774;2023-11-18T14:30:57;11.98;;;3.53;;
13611;SDS011;6877;51.436;6.774;2023-11-18T14:33:24;6.38;;;3.30;;
13611;SDS011;6877;51.436;6.774;2023-11-18T14:35:55;10.27;;;3.72;;
13611;SDS011;6877;51.436;6.774;2023-11-18T14:38:27;9.57;;;4.63;;
13611;SDS011;6877;51.436;6.774;2023-11-18T14:40:53;9.75;;;3.88;;
13611;SDS011;6877;51.436;6.774;2023-11-18T14:43:20;7.95;;;4.03;;
13611;SDS011;6877;51.436;6.774;2023-11-18T14:45:51;5.60;;;4.30;;
13611;SDS011;6877;51.436;6.774;2023-11-18T14:48:23;9.23;;;3.88;;
13611;SDS011;6877;51.436;6.774;2023-11-18T14:50:50;8.70;;;3.90;;
13611;SDS011;6877;51.436;6.774;2023-11-18T14:53:16;9.05;;;3.88;;
13611;SDS011;6877;51.436;6.774;2023-11-18T14:55:43;4.63;;;3.22;;
13611;SDS011;6877;51.436;6.774;2023-11-18T14:58:10;6.07;;;3.22;;
13611;SDS011;6877;51.436;6.774;2023-11-18T15:00:43;7.20;;;3.65;;
13611;SDS011;6877;51.436;6.774;2023-11-18T15:03:13;5.28;;;3.53;;
13611;SDS011;6877;51.436;6.774;2023-11-18T15:05:39;9.05;;;3.80;;
13611;SDS011;6877;51.436;6.774;2023-11-18T15:08:15;7.15;;;4.32;;
13611;SDS011;6877;51.436;6.774;2023-11-18T15:10:42;10.98;;;4.43;;
13611;SDS011;6877;51.436;6.774;2023-11-18T15:13:10;9.57;;;4.88;;
13611;SDS011;6877;51.436;6.774;2023-11-18T15:15:44;7.60;;;4.22;;
13611;SDS011;6877;51.436;6.774;2023-11-18T15:18:13;11.77;;;5.30;;